sensor_id;sensor_type;location;lat;lon;timestamp;P1;durP1;ratioP1;P2;durP2;ratioP2
32323;SDS011;25666;44.350;9.222;2023-05-29T00:00:12;17.10;;;8.93;;
32323;SDS011;25666;44.350;9.222;2023-05-29T00:02:38;15.82;;;9.93;;
32323;SDS011;25666;44.350;9.222;2023-05-29T00:05:12;12.23;;;7.85;;
32323;SDS011;25666;44.350;9.222;2023-05-29T00:07:39;15.00;;;9.07;;
32323;SDS011;25666;44.350;9.222;2023-05-29T00:10:06;11.75;;;8.48;;
32323;SDS011;25666;44.350;9.222;2023-05-29T00:12:32;15.63;;;8.55;;
32323;SDS011;25666;44.350;9.222;2023-05-29T00:14:58;11.60;;;8.35;;
32323;SDS011;25666;44.350;9.222;2023-05-29T00:17:23;14.75;;;8.32;;
32323;SDS011;25666;44.350;9.222;2023-05-29T00:19:49;11.75;;;7.78;;
32323;SDS011;25666;44.350;9.222;2023-05-29T00:22:15;15.77;;;8.07;;
32323;SDS011;25666;44.350;9.222;2023-05-29T00:24:42;13.07;;;8.43;;
32323;SDS011;25666;44.350;9.222;2023-05-29T00:27:08;16.13;;;8.85;;
32323;SDS011;25666;44.350;9.222;2023-05-29T00:29:35;14.00;;;8.60;;
32323;SDS011;25666;44.350;9.222;2023-05-29T00:32:03;12.75;;;7.68;;
32323;SDS011;25666;44.350;9.222;2023-05-29T00:34:30;9.32;;;7.07;;
32323;SDS011;25666;44.350;9.222;2023-05-29T00:36:56;16.17;;;7.88;;
32323;SDS011;25666;44.350;9.222;2023-05-29T00:39:23;12.57;;;7.20;;
32323;SDS011;25666;44.350;9.222;2023-05-29T00:41:48;15.80;;;8.32;;
32323;SDS011;25666;44.350;9.222;2023-05-29T00:44:19;17.55;;;9.00;;
32323;SDS011;25666;44.350;9.222;2023-05-29T00:46:45;12.50;;;8.52;;
32323;SDS011;25666;44.350;9.222;2023-05-29T00:49:12;17.15;;;8.85;;
32323;SDS011;25666;44.350;9.222;2023-05-29T00:51:38;12.77;;;7.93;;
32323;SDS011;25666;44.350;9.222;2023-05-29T00:54:09;12.90;;;8.75;;
32323;SDS011;25666;44.350;9.222;2023-05-29T00:56:38;12.60;;;8.35;;
32323;SDS011;25666;44.350;9.222;2023-05-29T00:59:04;10.30;;;7.70;;
32323;SDS011;25666;44.350;9.222;2023-05-29T01:01:30;13.63;;;8.07;;
32323;SDS011;25666;44.350;9.222;2023-05-29T01:03:57;19.65;;;9.27;;
32323;SDS011;25666;44.350;9.222;2023-05-29T01:06:26;13.70;;;8.55;;
32323;SDS011;25666;44.350;9.222;2023-05-29T01:08:52;13.05;;;8.15;;
32323;SDS011;25666;44.350;9.222;2023-05-29T01:11:26;15.50;;;8.15;;
32323;SDS011;25666;44.350;9.222;2023-05-29T01:14:07;14.25;;;8.63;;
32323;SDS011;25666;44.350;9.222;2023-05-29T01:16:36;12.10;;;7.85;;
32323;SDS011;25666;44.350;9.222;2023-05-29T01:24:50;16.42;;;9.60;;
32323;SDS011;25666;44.350;9.222;2023-05-29T01:27:24;16.23;;;8.65;;
32323;SDS011;25666;44.350;9.222;2023-05-29T01:29:54;16.48;;;10.40;;
32323;SDS011;25666;44.350;9.222;2023-05-29T01:32:21;17.60;;;8.82;;
32323;SDS011;25666;44.350;9.222;2023-05-29T01:34:47;15.00;;;10.02;;
32323;SDS011;25666;44.350;9.222;2023-05-29T01:37:13;13.95;;;9.15;;
32323;SDS011;25666;44.350;9.222;2023-05-29T01:39:38;12.30;;;8.15;;
32323;SDS011;25666;44.350;9.222;2023-05-29T01:42:04;12.15;;;8.35;;
32323;SDS011;25666;44.350;9.222;2023-05-29T01:44:33;14.73;;;9.13;;
32323;SDS011;25666;44.350;9.222;2023-05-29T01:46:59;12.35;;;7.78;;
32323;SDS011;25666;44.350;9.222;2023-05-29T01:49:25;14.60;;;9.10;;
32323;SDS011;25666;44.350;9.222;2023-05-29T01:51:52;14.43;;;8.70;;
32323;SDS011;25666;44.350;9.222;2023-05-29T01:54:18;12.75;;;8.70;;
32323;SDS011;25666;44.350;9.222;2023-05-29T01:56:44;14.25;;;8.23;;
32323;SDS011;25666;44.350;9.222;2023-05-29T01:59:10;11.98;;;7.80;;
32323;SDS011;25666;44.350;9.222;2023-05-29T02:01:40;13.88;;;7.97;;
32323;SDS011;25666;44.350;9.222;2023-05-29T02:04:07;19.65;;;9.73;;
32323;SDS011;25666;44.350;9.222;2023-05-29T02:06:32;17.80;;;9.30;;
32323;SDS011;25666;44.350;9.222;2023-05-29T02:08:58;15.65;;;9.25;;
32323;SDS011;25666;44.350;9.222;2023-05-29T02:11:24;13.00;;;7.93;;
32323;SDS011;25666;44.350;9.222;2023-05-29T02:13:51;17.80;;;8.95;;
32323;SDS011;25666;44.350;9.222;2023-05-29T02:16:17;16.30;;;8.65;;
32323;SDS011;25666;44.350;9.222;2023-05-29T02:18:45;15.60;;;9.98;;
32323;SDS011;25666;44.350;9.222;2023-05-29T02:21:11;14.32;;;9.27;;
32323;SDS011;25666;44.350;9.222;2023-05-29T02:23:37;12.15;;;8.77;;
32323;SDS011;25666;44.350;9.222;2023-05-29T02:26:03;21.27;;;9.63;;
32323;SDS011;25666;44.350;9.222;2023-05-29T02:28:29;13.95;;;9.30;;
32323;SDS011;25666;44.350;9.222;2023-05-29T02:30:54;18.92;;;9.48;;
32323;SDS011;25666;44.350;9.222;2023-05-29T02:33:20;14.13;;;7.93;;
32323;SDS011;25666;44.350;9.222;2023-05-29T02:35:45;12.23;;;8.85;;
32323;SDS011;25666;44.350;9.222;2023-05-29T02:38:11;15.52;;;8.50;;
32323;SDS011;25666;44.350;9.222;2023-05-29T02:40:39;14.00;;;8.45;;
32323;SDS011;25666;44.350;9.222;2023-05-29T02:43:05;18.58;;;8.88;;
32323;SDS011;25666;44.350;9.222;2023-05-29T02:45:31;14.95;;;9.43;;
32323;SDS011;25666;44.350;9.222;2023-05-29T02:47:56;16.45;;;10.10;;
32323;SDS011;25666;44.350;9.222;2023-05-29T02:50:22;11.93;;;8.80;;
32323;SDS011;25666;44.350;9.222;2023-05-29T02:52:47;16.73;;;9.32;;
32323;SDS011;25666;44.350;9.222;2023-05-29T02:55:13;13.77;;;8.40;;
32323;SDS011;25666;44.350;9.222;2023-05-29T02:57:39;17.48;;;9.35;;
32323;SDS011;25666;44.350;9.222;2023-05-29T03:00:05;14.77;;;8.88;;
32323;SDS011;25666;44.350;9.222;2023-05-29T03:02:32;18.33;;;8.70;;
32323;SDS011;25666;44.350;9.222;2023-05-29T03:04:58;15.13;;;8.90;;
32323;SDS011;25666;44.350;9.222;2023-05-29T03:07:23;20.67;;;8.43;;
32323;SDS011;25666;44.350;9.222;2023-05-29T03:09:49;9.35;;;7.15;;
32323;SDS011;25666;44.350;9.222;2023-05-29T03:12:15;10.85;;;7.40;;
32323;SDS011;25666;44.350;9.222;2023-05-29T03:14:41;14.75;;;7.88;;
32323;SDS011;25666;44.350;9.222;2023-05-29T03:17:10;14.43;;;9.23;;
32323;SDS011;25666;44.350;9.222;2023-05-29T03:19:36;12.05;;;8.35;;
32323;SDS011;25666;44.350;9.222;2023-05-29T03:22:02;18.95;;;9.98;;
32323;SDS011;25666;44.350;9.222;2023-05-29T03:24:29;19.45;;;9.10;;
32323;SDS011;25666;44.350;9.222;2023-05-29T03:26:54;14.55;;;8.95;;
32323;SDS011;25666;44.350;9.222;2023-05-29T03:29:22;15.95;;;8.88;;
32323;SDS011;25666;44.350;9.222;2023-05-29T03:31:47;14.52;;;8.85;;
32323;SDS011;25666;44.350;9.222;2023-05-29T03:34:18;14.68;;;8.15;;
32323;SDS011;25666;44.350;9.222;2023-05-29T03:36:53;13.93;;;9.73;;
32323;SDS011;25666;44.350;9.222;2023-05-29T03:39:18;17.60;;;8.15;;
32323;SDS011;25666;44.350;9.222;2023-05-29T03:41:45;17.35;;;8.80;;
32323;SDS011;25666;44.350;9.222;2023-05-29T03:44:10;14.07;;;8.10;;
32323;SDS011;25666;44.350;9.222;2023-05-29T03:46:36;17.40;;;7.55;;
32323;SDS011;25666;44.350;9.222;2023-05-29T03:49:03;12.48;;;8.55;;
32323;SDS011;25666;44.350;9.222;2023-05-29T03:51:30;13.68;;;8.85;;
32323;SDS011;25666;44.350;9.222;2023-05-29T03:53:56;14.90;;;8.18;;
32323;SDS011;25666;44.350;9.222;2023-05-29T03:56:21;17.00;;;8.90;;
32323;SDS011;25666;44.350;9.222;2023-05-29T03:58:48;16.83;;;8.50;;
32323;SDS011;25666;44.350;9.222;2023-05-29T04:01:13;16.52;;;9.18;;
32323;SDS011;25666;44.350;9.222;2023-05-29T04:03:39;17.60;;;8.85;;
32323;SDS011;25666;44.350;9.222;2023-05-29T04:06:05;13.35;;;7.72;;
32323;SDS011;25666;44.350;9.222;2023-05-29T04:08:30;11.55;;;7.97;;
32323;SDS011;25666;44.350;9.222;2023-05-29T04:10:56;15.50;;;9.70;;
32323;SDS011;25666;44.350;9.222;2023-05-29T04:13:21;16.83;;;7.70;;
32323;SDS011;25666;44.350;9.222;2023-05-29T04:15:47;17.35;;;9.10;;
32323;SDS011;25666;44.350;9.222;2023-05-29T04:18:14;17.67;;;9.00;;
32323;SDS011;25666;44.350;9.222;2023-05-29T04:20:40;15.88;;;8.93;;
32323;SDS011;25666;44.350;9.222;2023-05-29T04:23:06;19.48;;;8.55;;
32323;SDS011;25666;44.350;9.222;2023-05-29T04:25:31;18.35;;;8.40;;
32323;SDS011;25666;44.350;9.222;2023-05-29T04:27:57;25.48;;;8.73;;
32323;SDS011;25666;44.350;9.222;2023-05-29T04:30:28;17.17;;;8.43;;
32323;SDS011;25666;44.350;9.222;2023-05-29T04:32:54;12.05;;;7.35;;
32323;SDS011;25666;44.350;9.222;2023-05-29T04:35:21;21.00;;;8.25;;
32323;SDS011;25666;44.350;9.222;2023-05-29T04:37:56;14.00;;;8.27;;
32323;SDS011;25666;44.350;9.222;2023-05-29T04:40:25;21.20;;;8.77;;
32323;SDS011;25666;44.350;9.222;2023-05-29T04:42:51;24.20;;;9.45;;
32323;SDS011;25666;44.350;9.222;2023-05-29T04:45:21;29.15;;;9.55;;
32323;SDS011;25666;44.350;9.222;2023-05-29T04:47:47;22.83;;;9.85;;
32323;SDS011;25666;44.350;9.222;2023-05-29T04:50:13;20.20;;;7.68;;
32323;SDS011;25666;44.350;9.222;2023-05-29T04:52:41;12.90;;;7.38;;
32323;SDS011;25666;44.350;9.222;2023-05-29T04:55:09;14.77;;;7.80;;
32323;SDS011;25666;44.350;9.222;2023-05-29T04:57:36;14.82;;;8.35;;
32323;SDS011;25666;44.350;9.222;2023-05-29T05:00:02;14.45;;;7.82;;
32323;SDS011;25666;44.350;9.222;2023-05-29T05:02:34;12.15;;;7.63;;
32323;SDS011;25666;44.350;9.222;2023-05-29T05:04:59;18.65;;;8.77;;
32323;SDS011;25666;44.350;9.222;2023-05-29T05:07:25;15.80;;;8.10;;
32323;SDS011;25666;44.350;9.222;2023-05-29T05:09:51;16.92;;;8.70;;
32323;SDS011;25666;44.350;9.222;2023-05-29T05:12:20;15.18;;;8.43;;
32323;SDS011;25666;44.350;9.222;2023-05-29T05:14:46;13.73;;;7.40;;
32323;SDS011;25666;44.350;9.222;2023-05-29T05:17:12;13.30;;;6.85;;
32323;SDS011;25666;44.350;9.222;2023-05-29T05:19:37;20.70;;;8.43;;
32323;SDS011;25666;44.350;9.222;2023-05-29T05:22:03;16.15;;;8.90;;
32323;SDS011;25666;44.350;9.222;2023-05-29T05:24:28;15.90;;;8.52;;
32323;SDS011;25666;44.350;9.222;2023-05-29T05:26:55;17.02;;;9.15;;
32323;SDS011;25666;44.350;9.222;2023-05-29T05:29:21;20.02;;;8.10;;
32323;SDS011;25666;44.350;9.222;2023-05-29T05:31:46;13.45;;;7.47;;
32323;SDS011;25666;44.350;9.222;2023-05-29T05:34:12;18.83;;;8.32;;
32323;SDS011;25666;44.350;9.222;2023-05-29T05:36:39;17.20;;;8.55;;
32323;SDS011;25666;44.350;9.222;2023-05-29T05:39:10;17.33;;;8.17;;
32323;SDS011;25666;44.350;9.222;2023-05-29T05:41:36;14.90;;;7.53;;
32323;SDS011;25666;44.350;9.222;2023-05-29T05:44:02;18.67;;;7.47;;
32323;SDS011;25666;44.350;9.222;2023-05-29T05:46:40;18.50;;;8.00;;
32323;SDS011;25666;44.350;9.222;2023-05-29T05:49:07;10.70;;;7.13;;
32323;SDS011;25666;44.350;9.222;2023-05-29T05:51:32;14.18;;;8.10;;
32323;SDS011;25666;44.350;9.222;2023-05-29T05:53:58;13.07;;;7.35;;
32323;SDS011;25666;44.350;9.222;2023-05-29T05:56:25;20.10;;;8.65;;
32323;SDS011;25666;44.350;9.222;2023-05-29T05:58:51;15.88;;;7.70;;
32323;SDS011;25666;44.350;9.222;2023-05-29T06:01:18;12.60;;;7.53;;
32323;SDS011;25666;44.350;9.222;2023-05-29T06:03:44;12.40;;;6.63;;
32323;SDS011;25666;44.350;9.222;2023-05-29T06:06:10;14.32;;;7.50;;
32323;SDS011;25666;44.350;9.222;2023-05-29T06:08:38;14.57;;;7.32;;
32323;SDS011;25666;44.350;9.222;2023-05-29T06:11:05;10.52;;;6.82;;
32323;SDS011;25666;44.350;9.222;2023-05-29T06:13:33;52.50;;;11.57;;
32323;SDS011;25666;44.350;9.222;2023-05-29T06:16:05;13.00;;;6.50;;
32323;SDS011;25666;44.350;9.222;2023-05-29T06:18:30;10.32;;;6.63;;
32323;SDS011;25666;44.350;9.222;2023-05-29T06:20:56;15.55;;;7.18;;
32323;SDS011;25666;44.350;9.222;2023-05-29T06:23:22;13.95;;;9.43;;
32323;SDS011;25666;44.350;9.222;2023-05-29T06:25:48;12.43;;;6.70;;
32323;SDS011;25666;44.350;9.222;2023-05-29T06:28:14;10.20;;;7.68;;
32323;SDS011;25666;44.350;9.222;2023-05-29T06:30:40;10.82;;;7.13;;
32323;SDS011;25666;44.350;9.222;2023-05-29T06:33:07;11.43;;;5.82;;
32323;SDS011;25666;44.350;9.222;2023-05-29T06:35:34;8.55;;;6.07;;
32323;SDS011;25666;44.350;9.222;2023-05-29T06:38:00;17.88;;;7.93;;
32323;SDS011;25666;44.350;9.222;2023-05-29T06:40:26;18.90;;;7.38;;
32323;SDS011;25666;44.350;9.222;2023-05-29T06:42:51;12.13;;;6.40;;
32323;SDS011;25666;44.350;9.222;2023-05-29T06:45:29;8.02;;;5.85;;
32323;SDS011;25666;44.350;9.222;2023-05-29T06:47:55;13.70;;;6.55;;
32323;SDS011;25666;44.350;9.222;2023-05-29T06:50:21;11.07;;;6.57;;
32323;SDS011;25666;44.350;9.222;2023-05-29T06:52:46;12.35;;;6.78;;
32323;SDS011;25666;44.350;9.222;2023-05-29T06:55:32;12.35;;;5.50;;
32323;SDS011;25666;44.350;9.222;2023-05-29T06:57:58;10.93;;;6.00;;
32323;SDS011;25666;44.350;9.222;2023-05-29T07:00:25;6.47;;;5.70;;
32323;SDS011;25666;44.350;9.222;2023-05-29T07:03:11;7.50;;;5.50;;
32323;SDS011;25666;44.350;9.222;2023-05-29T07:05:37;7.45;;;5.75;;
32323;SDS011;25666;44.350;9.222;2023-05-29T07:08:02;10.00;;;6.65;;
32323;SDS011;25666;44.350;9.222;2023-05-29T07:10:28;5.80;;;5.30;;
32323;SDS011;25666;44.350;9.222;2023-05-29T07:12:53;6.55;;;5.72;;
32323;SDS011;25666;44.350;9.222;2023-05-29T07:15:19;9.18;;;5.43;;
32323;SDS011;25666;44.350;9.222;2023-05-29T07:17:45;9.77;;;6.15;;
32323;SDS011;25666;44.350;9.222;2023-05-29T07:20:18;6.95;;;5.35;;
32323;SDS011;25666;44.350;9.222;2023-05-29T07:22:46;7.75;;;6.07;;
32323;SDS011;25666;44.350;9.222;2023-05-29T07:25:12;6.38;;;5.40;;
32323;SDS011;25666;44.350;9.222;2023-05-29T07:27:38;11.13;;;6.75;;
32323;SDS011;25666;44.350;9.222;2023-05-29T07:30:04;10.15;;;7.88;;
32323;SDS011;25666;44.350;9.222;2023-05-29T07:32:31;10.45;;;6.93;;
32323;SDS011;25666;44.350;9.222;2023-05-29T07:34:57;8.90;;;6.70;;
32323;SDS011;25666;44.350;9.222;2023-05-29T07:37:22;14.60;;;8.93;;
32323;SDS011;25666;44.350;9.222;2023-05-29T07:39:48;9.70;;;6.28;;
32323;SDS011;25666;44.350;9.222;2023-05-29T07:42:34;8.25;;;7.30;;
32323;SDS011;25666;44.350;9.222;2023-05-29T07:45:00;11.20;;;7.50;;
32323;SDS011;25666;44.350;9.222;2023-05-29T07:47:26;11.07;;;6.97;;
32323;SDS011;25666;44.350;9.222;2023-05-29T07:49:52;9.15;;;6.10;;
32323;SDS011;25666;44.350;9.222;2023-05-29T07:52:22;14.20;;;6.87;;
32323;SDS011;25666;44.350;9.222;2023-05-29T07:54:47;16.00;;;6.75;;
32323;SDS011;25666;44.350;9.222;2023-05-29T07:57:13;18.52;;;7.78;;
32323;SDS011;25666;44.350;9.222;2023-05-29T07:59:41;10.45;;;7.40;;
32323;SDS011;25666;44.350;9.222;2023-05-29T08:02:08;10.07;;;6.38;;
32323;SDS011;25666;44.350;9.222;2023-05-29T08:04:54;17.00;;;7.28;;
32323;SDS011;25666;44.350;9.222;2023-05-29T08:07:22;15.88;;;7.72;;
32323;SDS011;25666;44.350;9.222;2023-05-29T08:09:48;12.73;;;6.97;;
32323;SDS011;25666;44.350;9.222;2023-05-29T08:12:14;15.80;;;6.75;;
32323;SDS011;25666;44.350;9.222;2023-05-29T08:14:41;9.80;;;6.78;;
32323;SDS011;25666;44.350;9.222;2023-05-29T08:17:07;12.32;;;6.80;;
32323;SDS011;25666;44.350;9.222;2023-05-29T08:19:33;12.30;;;6.93;;
32323;SDS011;25666;44.350;9.222;2023-05-29T08:21:59;11.00;;;6.50;;
32323;SDS011;25666;44.350;9.222;2023-05-29T08:24:24;10.30;;;6.15;;
32323;SDS011;25666;44.350;9.222;2023-05-29T08:26:50;7.35;;;5.40;;
32323;SDS011;25666;44.350;9.222;2023-05-29T08:29:15;8.27;;;5.55;;
32323;SDS011;25666;44.350;9.222;2023-05-29T08:31:41;10.25;;;5.25;;
32323;SDS011;25666;44.350;9.222;2023-05-29T08:34:06;11.57;;;5.38;;
32323;SDS011;25666;44.350;9.222;2023-05-29T08:36:32;15.77;;;6.55;;
32323;SDS011;25666;44.350;9.222;2023-05-29T08:38:58;9.93;;;5.80;;
32323;SDS011;25666;44.350;9.222;2023-05-29T08:41:26;13.05;;;6.53;;
32323;SDS011;25666;44.350;9.222;2023-05-29T08:43:59;10.27;;;5.20;;
32323;SDS011;25666;44.350;9.222;2023-05-29T08:46:29;10.15;;;5.95;;
32323;SDS011;25666;44.350;9.222;2023-05-29T08:48:57;8.52;;;5.93;;
32323;SDS011;25666;44.350;9.222;2023-05-29T08:51:23;10.57;;;6.28;;
32323;SDS011;25666;44.350;9.222;2023-05-29T08:53:56;8.25;;;5.55;;
32323;SDS011;25666;44.350;9.222;2023-05-29T08:56:22;11.07;;;6.30;;
32323;SDS011;25666;44.350;9.222;2023-05-29T08:58:48;12.40;;;6.07;;
32323;SDS011;25666;44.350;9.222;2023-05-29T09:01:14;12.05;;;6.13;;
32323;SDS011;25666;44.350;9.222;2023-05-29T09:03:40;8.38;;;5.03;;
32323;SDS011;25666;44.350;9.222;2023-05-29T09:06:07;14.15;;;5.72;;
32323;SDS011;25666;44.350;9.222;2023-05-29T09:08:33;9.23;;;5.18;;
32323;SDS011;25666;44.350;9.222;2023-05-29T09:11:00;12.20;;;5.78;;
32323;SDS011;25666;44.350;9.222;2023-05-29T09:13:26;7.75;;;5.50;;
32323;SDS011;25666;44.350;9.222;2023-05-29T09:15:59;8.55;;;5.25;;
32323;SDS011;25666;44.350;9.222;2023-05-29T09:18:28;8.60;;;5.22;;
32323;SDS011;25666;44.350;9.222;2023-05-29T09:20:56;12.03;;;5.70;;
32323;SDS011;25666;44.350;9.222;2023-05-29T09:23:22;12.07;;;5.63;;
32323;SDS011;25666;44.350;9.222;2023-05-29T09:25:51;12.05;;;5.28;;
32323;SDS011;25666;44.350;9.222;2023-05-29T09:28:18;7.07;;;4.88;;
32323;SDS011;25666;44.350;9.222;2023-05-29T09:30:46;8.68;;;4.88;;
32323;SDS011;25666;44.350;9.222;2023-05-29T09:33:13;7.72;;;4.70;;
32323;SDS011;25666;44.350;9.222;2023-05-29T09:38:09;8.05;;;5.88;;
32323;SDS011;25666;44.350;9.222;2023-05-29T09:43:09;10.75;;;5.50;;
32323;SDS011;25666;44.350;9.222;2023-05-29T09:45:37;10.18;;;5.30;;
32323;SDS011;25666;44.350;9.222;2023-05-29T09:48:07;9.00;;;4.95;;
32323;SDS011;25666;44.350;9.222;2023-05-29T09:50:35;9.02;;;4.93;;
32323;SDS011;25666;44.350;9.222;2023-05-29T09:53:01;10.80;;;4.75;;
32323;SDS011;25666;44.350;9.222;2023-05-29T09:55:27;8.07;;;5.43;;
32323;SDS011;25666;44.350;9.222;2023-05-29T09:57:54;8.07;;;5.22;;
32323;SDS011;25666;44.350;9.222;2023-05-29T10:00:20;8.77;;;5.03;;
32323;SDS011;25666;44.350;9.222;2023-05-29T10:02:49;7.55;;;5.45;;
32323;SDS011;25666;44.350;9.222;2023-05-29T10:05:15;9.52;;;5.68;;
32323;SDS011;25666;44.350;9.222;2023-05-29T10:07:43;11.85;;;5.35;;
32323;SDS011;25666;44.350;9.222;2023-05-29T10:10:14;6.25;;;4.95;;
32323;SDS011;25666;44.350;9.222;2023-05-29T10:12:48;11.80;;;5.45;;
32323;SDS011;25666;44.350;9.222;2023-05-29T10:15:14;8.33;;;5.10;;
32323;SDS011;25666;44.350;9.222;2023-05-29T10:17:53;6.15;;;5.10;;
32323;SDS011;25666;44.350;9.222;2023-05-29T10:20:29;7.25;;;5.05;;
32323;SDS011;25666;44.350;9.222;2023-05-29T10:22:56;10.07;;;5.70;;
32323;SDS011;25666;44.350;9.222;2023-05-29T10:25:25;11.13;;;4.90;;
32323;SDS011;25666;44.350;9.222;2023-05-29T10:27:54;8.27;;;5.18;;
32323;SDS011;25666;44.350;9.222;2023-05-29T10:36:19;10.35;;;4.68;;
32323;SDS011;25666;44.350;9.222;2023-05-29T10:41:28;7.43;;;5.32;;
32323;SDS011;25666;44.350;9.222;2023-05-29T10:43:58;9.38;;;5.55;;
32323;SDS011;25666;44.350;9.222;2023-05-29T10:49:16;10.07;;;4.55;;
32323;SDS011;25666;44.350;9.222;2023-05-29T10:51:42;12.32;;;5.85;;
32323;SDS011;25666;44.350;9.222;2023-05-29T10:54:07;6.88;;;4.97;;
32323;SDS011;25666;44.350;9.222;2023-05-29T10:56:33;8.35;;;5.18;;
32323;SDS011;25666;44.350;9.222;2023-05-29T10:58:58;8.70;;;4.55;;
32323;SDS011;25666;44.350;9.222;2023-05-29T11:01:27;6.18;;;4.80;;
32323;SDS011;25666;44.350;9.222;2023-05-29T11:06:51;10.98;;;5.55;;
32323;SDS011;25666;44.350;9.222;2023-05-29T11:12:13;10.77;;;4.63;;
32323;SDS011;25666;44.350;9.222;2023-05-29T11:15:02;7.45;;;5.15;;
32323;SDS011;25666;44.350;9.222;2023-05-29T11:17:31;7.30;;;5.05;;
32323;SDS011;25666;44.350;9.222;2023-05-29T11:20:07;7.88;;;5.35;;
32323;SDS011;25666;44.350;9.222;2023-05-29T11:25:06;11.30;;;6.10;;
32323;SDS011;25666;44.350;9.222;2023-05-29T11:27:32;9.38;;;5.38;;
32323;SDS011;25666;44.350;9.222;2023-05-29T11:29:59;13.65;;;6.43;;
32323;SDS011;25666;44.350;9.222;2023-05-29T11:32:25;14.15;;;6.18;;
32323;SDS011;25666;44.350;9.222;2023-05-29T11:34:52;14.82;;;7.50;;
32323;SDS011;25666;44.350;9.222;2023-05-29T11:37:21;10.38;;;5.53;;
32323;SDS011;25666;44.350;9.222;2023-05-29T11:39:48;15.10;;;6.40;;
32323;SDS011;25666;44.350;9.222;2023-05-29T11:42:14;16.38;;;7.15;;
32323;SDS011;25666;44.350;9.222;2023-05-29T11:44:40;11.98;;;6.50;;
32323;SDS011;25666;44.350;9.222;2023-05-29T11:47:06;12.05;;;7.35;;
32323;SDS011;25666;44.350;9.222;2023-05-29T11:49:33;15.13;;;6.65;;
32323;SDS011;25666;44.350;9.222;2023-05-29T11:54:33;9.85;;;6.28;;
32323;SDS011;25666;44.350;9.222;2023-05-29T11:57:00;15.85;;;6.85;;
32323;SDS011;25666;44.350;9.222;2023-05-29T11:59:28;13.85;;;6.53;;
32323;SDS011;25666;44.350;9.222;2023-05-29T12:01:54;12.95;;;6.07;;
32323;SDS011;25666;44.350;9.222;2023-05-29T12:04:20;13.60;;;6.75;;
32323;SDS011;25666;44.350;9.222;2023-05-29T12:06:45;11.90;;;6.85;;
32323;SDS011;25666;44.350;9.222;2023-05-29T12:09:23;14.40;;;6.40;;
32323;SDS011;25666;44.350;9.222;2023-05-29T12:11:52;11.73;;;5.75;;
32323;SDS011;25666;44.350;9.222;2023-05-29T12:14:18;16.98;;;6.72;;
32323;SDS011;25666;44.350;9.222;2023-05-29T12:16:44;12.52;;;7.13;;
32323;SDS011;25666;44.350;9.222;2023-05-29T12:19:10;14.65;;;6.60;;
32323;SDS011;25666;44.350;9.222;2023-05-29T12:21:36;15.52;;;6.85;;
32323;SDS011;25666;44.350;9.222;2023-05-29T12:24:07;14.65;;;8.02;;
32323;SDS011;25666;44.350;9.222;2023-05-29T12:26:32;11.10;;;6.45;;
32323;SDS011;25666;44.350;9.222;2023-05-29T12:28:58;10.20;;;6.45;;
32323;SDS011;25666;44.350;9.222;2023-05-29T12:31:29;17.50;;;7.43;;
32323;SDS011;25666;44.350;9.222;2023-05-29T12:33:59;9.77;;;6.43;;
32323;SDS011;25666;44.350;9.222;2023-05-29T12:36:26;10.15;;;6.55;;
32323;SDS011;25666;44.350;9.222;2023-05-29T12:38:52;16.65;;;7.85;;
32323;SDS011;25666;44.350;9.222;2023-05-29T12:41:22;23.10;;;7.60;;
32323;SDS011;25666;44.350;9.222;2023-05-29T12:43:58;13.23;;;7.00;;
32323;SDS011;25666;44.350;9.222;2023-05-29T12:46:27;11.15;;;6.10;;
32323;SDS011;25666;44.350;9.222;2023-05-29T12:48:53;10.85;;;5.78;;
32323;SDS011;25666;44.350;9.222;2023-05-29T12:51:24;15.00;;;6.50;;
32323;SDS011;25666;44.350;9.222;2023-05-29T12:53:53;13.07;;;6.40;;
32323;SDS011;25666;44.350;9.222;2023-05-29T12:56:23;20.92;;;7.88;;
32323;SDS011;25666;44.350;9.222;2023-05-29T12:58:51;14.00;;;5.90;;
32323;SDS011;25666;44.350;9.222;2023-05-29T13:01:17;16.00;;;6.47;;
32323;SDS011;25666;44.350;9.222;2023-05-29T13:03:42;9.48;;;6.22;;
32323;SDS011;25666;44.350;9.222;2023-05-29T13:06:10;16.98;;;5.63;;
32323;SDS011;25666;44.350;9.222;2023-05-29T13:08:36;9.20;;;5.80;;
32323;SDS011;25666;44.350;9.222;2023-05-29T13:11:01;12.75;;;6.07;;
32323;SDS011;25666;44.350;9.222;2023-05-29T13:13:27;9.55;;;5.90;;
32323;SDS011;25666;44.350;9.222;2023-05-29T13:15:52;13.73;;;6.55;;
32323;SDS011;25666;44.350;9.222;2023-05-29T13:18:18;17.02;;;6.47;;
32323;SDS011;25666;44.350;9.222;2023-05-29T13:20:43;11.18;;;6.20;;
32323;SDS011;25666;44.350;9.222;2023-05-29T13:23:09;11.20;;;6.20;;
32323;SDS011;25666;44.350;9.222;2023-05-29T13:25:34;21.65;;;7.00;;
32323;SDS011;25666;44.350;9.222;2023-05-29T13:28:00;10.80;;;6.65;;
32323;SDS011;25666;44.350;9.222;2023-05-29T13:30:25;9.75;;;5.93;;
32323;SDS011;25666;44.350;9.222;2023-05-29T13:32:52;18.05;;;6.38;;
32323;SDS011;25666;44.350;9.222;2023-05-29T13:35:17;13.88;;;7.28;;
32323;SDS011;25666;44.350;9.222;2023-05-29T13:37:43;13.15;;;5.93;;
32323;SDS011;25666;44.350;9.222;2023-05-29T13:40:09;22.55;;;7.07;;
32323;SDS011;25666;44.350;9.222;2023-05-29T13:42:35;10.25;;;5.78;;
32323;SDS011;25666;44.350;9.222;2023-05-29T13:45:01;12.30;;;6.35;;
32323;SDS011;25666;44.350;9.222;2023-05-29T13:47:26;15.35;;;7.45;;
32323;SDS011;25666;44.350;9.222;2023-05-29T13:49:53;10.98;;;5.80;;
32323;SDS011;25666;44.350;9.222;2023-05-29T13:52:19;14.95;;;7.80;;
32323;SDS011;25666;44.350;9.222;2023-05-29T13:54:44;18.08;;;7.05;;
32323;SDS011;25666;44.350;9.222;2023-05-29T13:57:10;12.80;;;6.35;;
32323;SDS011;25666;44.350;9.222;2023-05-29T13:59:35;17.13;;;7.10;;
32323;SDS011;25666;44.350;9.222;2023-05-29T14:02:01;18.42;;;7.05;;
32323;SDS011;25666;44.350;9.222;2023-05-29T14:04:30;18.27;;;7.40;;
32323;SDS011;25666;44.350;9.222;2023-05-29T14:06:56;13.25;;;7.85;;
32323;SDS011;25666;44.350;9.222;2023-05-29T14:09:22;10.68;;;7.05;;
32323;SDS011;25666;44.350;9.222;2023-05-29T14:11:56;14.73;;;6.82;;
32323;SDS011;25666;44.350;9.222;2023-05-29T14:14:24;13.80;;;8.00;;
32323;SDS011;25666;44.350;9.222;2023-05-29T14:16:50;17.15;;;6.90;;
32323;SDS011;25666;44.350;9.222;2023-05-29T14:19:17;12.93;;;7.07;;
32323;SDS011;25666;44.350;9.222;2023-05-29T14:21:43;14.85;;;6.93;;
32323;SDS011;25666;44.350;9.222;2023-05-29T14:24:09;21.15;;;7.45;;
32323;SDS011;25666;44.350;9.222;2023-05-29T14:26:34;12.00;;;7.90;;
32323;SDS011;25666;44.350;9.222;2023-05-29T14:29:00;15.13;;;8.15;;
32323;SDS011;25666;44.350;9.222;2023-05-29T14:31:26;12.45;;;7.30;;
32323;SDS011;25666;44.350;9.222;2023-05-29T14:33:51;12.52;;;8.25;;
32323;SDS011;25666;44.350;9.222;2023-05-29T14:36:17;11.82;;;7.28;;
32323;SDS011;25666;44.350;9.222;2023-05-29T14:38:42;13.52;;;7.38;;
32323;SDS011;25666;44.350;9.222;2023-05-29T14:41:09;18.45;;;8.05;;
32323;SDS011;25666;44.350;9.222;2023-05-29T14:43:35;10.68;;;7.30;;
32323;SDS011;25666;44.350;9.222;2023-05-29T14:46:01;11.77;;;8.43;;
32323;SDS011;25666;44.350;9.222;2023-05-29T14:48:27;11.02;;;8.70;;
32323;SDS011;25666;44.350;9.222;2023-05-29T14:50:52;25.77;;;15.15;;
32323;SDS011;25666;44.350;9.222;2023-05-29T14:53:18;15.77;;;8.73;;
32323;SDS011;25666;44.350;9.222;2023-05-29T14:55:45;14.15;;;8.80;;
32323;SDS011;25666;44.350;9.222;2023-05-29T14:58:11;13.55;;;7.45;;
32323;SDS011;25666;44.350;9.222;2023-05-29T15:00:39;11.98;;;7.63;;
32323;SDS011;25666;44.350;9.222;2023-05-29T15:03:04;14.10;;;7.32;;
32323;SDS011;25666;44.350;9.222;2023-05-29T15:05:30;13.73;;;7.70;;
32323;SDS011;25666;44.350;9.222;2023-05-29T15:07:56;12.00;;;7.85;;